Afua, Brazil
Current Conditions -  °F | °C
As of 11:00 AM on Thursday 29 Jan 2015 (Local Time) from SBMQ Reporting Station
Broken Clouds Broken Clouds  
Wind Chill: 90°   Ceiling: 8000
Heat Index: 102°   Visibility: 6mi
Dew Point: 77°   Wind: 9mph
Humidity: 66%   Direction: 60°ENE
Pressure: 29.88"   Gusts: NA
Location:  0.16°S, 50.39°W
Report Text: SBMQ 291400Z 06008KT 9999 SCT020 BKN080 32/25 Q1012
Loading
Personal Weather Stations






























Interactive Weather Map New forecast layout! Learn more

10-Day Weather Forecast

Advertisements
Track Severe Weather on mobile